createdAt,value
2019-02-04T00:00:49.530Z,0.00
2019-02-04T00:01:49.523Z,0.00
2019-02-04T00:02:49.534Z,0.00
2019-02-04T00:03:49.510Z,0.00
2019-02-04T00:04:49.550Z,0.00
2019-02-04T00:05:49.482Z,0.00
2019-02-04T00:06:49.474Z,0.00
2019-02-04T00:07:49.472Z,0.00
2019-02-04T00:08:49.443Z,0.00
2019-02-04T00:09:49.432Z,0.00
2019-02-04T00:10:49.437Z,0.00
2019-02-04T00:11:49.405Z,0.00
2019-02-04T00:12:49.403Z,0.00
2019-02-04T00:13:49.393Z,0.00
2019-02-04T00:14:49.366Z,0.00
2019-02-04T00:15:49.400Z,0.00
2019-02-04T00:16:49.351Z,0.00
2019-02-04T00:17:49.370Z,0.00
2019-02-04T00:18:49.338Z,0.00
2019-02-04T00:19:49.323Z,0.00
2019-02-04T00:20:49.351Z,0.00
2019-02-04T00:21:49.315Z,0.00
2019-02-04T00:22:49.312Z,0.00
2019-02-04T00:23:49.300Z,0.00
2019-02-04T00:24:49.287Z,0.00
2019-02-04T00:25:49.252Z,0.00
2019-02-04T00:26:51.655Z,0.00
2019-02-04T00:27:49.247Z,0.00
2019-02-04T00:28:49.224Z,0.00
2019-02-04T00:29:49.211Z,0.00
2019-02-04T00:30:49.218Z,0.00
2019-02-04T00:31:49.201Z,0.00
2019-02-04T00:32:49.190Z,0.00
2019-02-04T00:33:49.178Z,0.00
2019-02-04T00:34:49.156Z,0.00
2019-02-04T00:35:49.143Z,0.00
2019-02-04T00:36:49.138Z,0.00
2019-02-04T00:37:49.139Z,0.00
2019-02-04T00:38:49.155Z,0.00
2019-02-04T00:39:49.108Z,0.00
2019-02-04T00:40:49.117Z,0.00
2019-02-04T00:41:49.093Z,0.00
2019-02-04T00:42:49.090Z,0.00
2019-02-04T00:43:49.056Z,0.00
2019-02-04T00:44:49.067Z,0.00
2019-02-04T00:45:49.057Z,0.00
2019-02-04T00:46:52.304Z,0.00
2019-02-04T00:47:49.016Z,0.00
2019-02-04T00:48:49.000Z,0.00
2019-02-04T00:49:48.986Z,0.00
2019-02-04T00:50:49.122Z,0.00
2019-02-04T00:51:48.978Z,0.00
2019-02-04T00:52:48.953Z,0.00
2019-02-04T00:53:48.976Z,0.00
2019-02-04T00:54:48.979Z,0.00
2019-02-04T00:55:48.931Z,0.00
2019-02-04T00:56:48.926Z,0.00
2019-02-04T00:57:48.927Z,0.00
2019-02-04T00:58:48.936Z,0.00
2019-02-04T00:59:48.883Z,0.00
2019-02-04T01:00:48.958Z,0.00
2019-02-04T01:01:48.867Z,0.00
2019-02-04T01:02:48.851Z,0.00
2019-02-04T01:03:48.842Z,0.00
2019-02-04T01:04:48.825Z,0.00
2019-02-04T01:05:48.827Z,0.00
2019-02-04T01:06:48.802Z,0.00
2019-02-04T01:07:48.811Z,0.00
2019-02-04T01:08:48.810Z,0.00
2019-02-04T01:09:48.804Z,0.00
2019-02-04T01:10:48.777Z,0.00
2019-02-04T01:11:48.762Z,0.00
2019-02-04T01:12:48.768Z,0.00
2019-02-04T01:13:48.751Z,0.00
2019-02-04T01:14:48.734Z,0.00
2019-02-04T01:15:48.723Z,0.00
2019-02-04T01:16:48.688Z,0.00
2019-02-04T01:17:48.682Z,0.00
2019-02-04T01:18:48.730Z,0.00
2019-02-04T01:19:48.680Z,0.00
2019-02-04T01:20:48.655Z,0.00
2019-02-04T01:21:48.696Z,0.00
2019-02-04T01:22:48.641Z,0.00
2019-02-04T01:23:48.640Z,0.00
2019-02-04T01:24:48.625Z,0.00
2019-02-04T01:25:48.631Z,0.00
2019-02-04T01:26:48.608Z,0.00
2019-02-04T01:27:48.602Z,0.00
2019-02-04T01:28:48.597Z,0.00
2019-02-04T01:29:48.550Z,0.00
2019-02-04T01:30:48.542Z,0.00
2019-02-04T01:31:48.615Z,0.00
2019-02-04T01:32:48.517Z,0.00
2019-02-04T01:33:48.544Z,0.00
2019-02-04T01:34:48.942Z,0.00
2019-02-04T01:35:48.506Z,0.00
2019-02-04T01:36:48.498Z,0.00
2019-02-04T01:37:48.469Z,0.00
2019-02-04T01:38:48.489Z,0.00
2019-02-04T01:39:48.439Z,0.00
2019-02-04T01:40:48.470Z,0.00
2019-02-04T01:41:48.429Z,0.00
2019-02-04T01:42:48.429Z,0.00
2019-02-04T01:43:48.403Z,0.00
2019-02-04T01:44:48.379Z,0.00
2019-02-04T01:45:48.406Z,0.00
2019-02-04T01:46:48.361Z,0.00
2019-02-04T01:47:48.380Z,0.00
2019-02-04T01:48:48.369Z,0.00
2019-02-04T01:49:48.330Z,0.00
2019-02-04T01:50:48.316Z,0.00
2019-02-04T01:51:48.309Z,0.00
2019-02-04T01:52:48.318Z,0.00
2019-02-04T01:53:48.292Z,0.00
2019-02-04T01:54:48.277Z,0.00
2019-02-04T01:55:48.306Z,0.00
2019-02-04T01:56:48.250Z,0.00
2019-02-04T01:57:48.288Z,0.00
2019-02-04T01:58:48.276Z,0.00
2019-02-04T01:59:48.247Z,0.00
2019-02-04T02:00:48.232Z,0.00
2019-02-04T02:01:48.200Z,0.00
2019-02-04T02:02:48.211Z,0.00
2019-02-04T02:03:48.190Z,0.00
2019-02-04T02:04:48.238Z,0.00
2019-02-04T02:05:48.174Z,0.00
2019-02-04T02:06:48.141Z,0.00
2019-02-04T02:07:48.126Z,0.00
2019-02-04T02:08:48.119Z,0.00
2019-02-04T02:09:48.154Z,0.00
2019-02-04T02:10:48.124Z,0.00
2019-02-04T02:11:48.117Z,0.00
2019-02-04T02:12:48.077Z,0.00
2019-02-04T02:13:48.071Z,0.00
2019-02-04T02:14:48.058Z,0.00
2019-02-04T02:15:48.050Z,0.00
2019-02-04T02:16:48.039Z,0.00
2019-02-04T02:17:48.035Z,0.00
2019-02-04T02:18:48.002Z,0.00
2019-02-04T02:19:48.019Z,0.00
2019-02-04T02:20:48.072Z,0.00
2019-02-04T02:21:47.974Z,0.00
2019-02-04T02:22:48.017Z,0.00
2019-02-04T02:23:47.948Z,0.00
2019-02-04T02:24:47.936Z,0.00
2019-02-04T02:25:47.946Z,0.00
2019-02-04T02:26:47.935Z,0.00
2019-02-04T02:27:47.923Z,0.00
2019-02-04T02:28:47.918Z,0.00
2019-02-04T02:29:47.891Z,0.00
2019-02-04T02:30:47.883Z,0.00
2019-02-04T02:31:47.873Z,0.00
2019-02-04T02:32:47.890Z,0.00
2019-02-04T02:33:47.879Z,0.00
2019-02-04T02:34:47.878Z,0.00
2019-02-04T02:35:47.822Z,0.00
2019-02-04T02:36:47.809Z,0.00
2019-02-04T02:37:47.823Z,0.00
2019-02-04T02:38:47.816Z,0.00
2019-02-04T02:39:47.818Z,0.00
2019-02-04T02:40:47.806Z,0.00
2019-02-04T02:41:47.753Z,0.00
2019-02-04T02:42:47.770Z,0.00
2019-02-04T02:43:47.754Z,0.00
2019-02-04T02:44:47.749Z,0.00
2019-02-04T02:45:47.758Z,0.00
2019-02-04T02:46:47.761Z,0.00
2019-02-04T02:47:47.720Z,0.00
2019-02-04T02:48:47.682Z,0.00
2019-02-04T02:49:47.690Z,0.00
2019-02-04T02:50:47.653Z,0.00
2019-02-04T02:51:47.649Z,0.00
2019-02-04T02:52:47.626Z,0.00
2019-02-04T02:53:47.622Z,0.00
2019-02-04T02:54:47.627Z,0.00
2019-02-04T02:55:47.623Z,0.00
2019-02-04T02:56:47.586Z,0.00
2019-02-04T02:57:47.589Z,0.00
2019-02-04T03:13:45.243Z,0.00
2019-02-04T03:14:45.192Z,0.00
2019-02-04T03:15:45.189Z,0.00
2019-02-04T03:16:45.212Z,0.00
2019-02-04T03:17:52.134Z,0.00
2019-02-04T03:18:45.115Z,0.00
2019-02-04T03:19:45.091Z,0.00
2019-02-04T03:20:45.106Z,0.00
2019-02-04T03:21:45.087Z,0.00
2019-02-04T03:22:45.064Z,0.00
2019-02-04T03:23:45.056Z,0.00
2019-02-04T03:24:45.047Z,0.00
2019-02-04T03:25:45.044Z,0.00
2019-02-04T03:26:44.998Z,0.00
2019-02-04T03:27:45.008Z,0.00
2019-02-04T03:28:44.997Z,0.00
2019-02-04T03:29:44.985Z,0.00
2019-02-04T03:30:44.955Z,0.00
2019-02-04T03:31:46.255Z,0.00
2019-02-04T03:32:44.936Z,0.00
2019-02-04T03:33:44.917Z,0.00
2019-02-04T03:34:44.902Z,0.00
2019-02-04T03:35:44.891Z,0.00
2019-02-04T03:36:44.926Z,0.00
2019-02-04T03:37:44.906Z,0.00
2019-02-04T03:38:44.884Z,0.00
2019-02-04T03:39:44.836Z,0.00
2019-02-04T03:40:44.855Z,0.00
2019-02-04T03:41:44.847Z,0.00
2019-02-04T03:42:44.807Z,0.00
2019-02-04T03:43:44.781Z,0.00
2019-02-04T03:44:44.791Z,0.00
2019-02-04T03:45:44.787Z,0.00
2019-02-04T03:46:44.785Z,0.00
2019-02-04T03:47:44.742Z,0.00
2019-02-04T03:48:44.730Z,0.00
2019-02-04T03:49:44.841Z,0.00
2019-02-04T03:50:44.693Z,0.00
2019-02-04T03:51:44.682Z,0.00
2019-02-04T03:52:44.699Z,0.00
2019-02-04T03:53:44.657Z,0.00
2019-02-04T03:54:44.668Z,0.00
2019-02-04T03:55:44.632Z,0.00
2019-02-04T03:56:44.636Z,0.00
2019-02-04T03:57:44.628Z,0.00
2019-02-04T03:58:44.610Z,0.00
2019-02-04T03:59:44.680Z,0.00
2019-02-04T04:00:44.589Z,0.00
2019-02-04T04:01:44.569Z,0.00
2019-02-04T04:02:44.578Z,0.00
2019-02-04T04:03:44.555Z,0.00
2019-02-04T04:04:44.574Z,0.00
2019-02-04T04:05:44.538Z,0.00
2019-02-04T04:06:44.499Z,0.00
2019-02-04T04:07:44.504Z,0.00
2019-02-04T04:08:44.481Z,0.00
2019-02-04T04:09:44.472Z,0.00
2019-02-04T04:10:44.444Z,0.00
2019-02-04T04:11:44.460Z,0.00
2019-02-04T04:12:44.463Z,0.00
2019-02-04T04:13:44.428Z,0.00
2019-02-04T04:14:44.396Z,0.00
2019-02-04T04:15:44.417Z,0.00
2019-02-04T04:16:44.387Z,0.00
2019-02-04T04:17:44.387Z,0.00
2019-02-04T04:18:44.347Z,0.00
2019-02-04T04:19:44.333Z,0.00
2019-02-04T04:20:44.344Z,0.00
2019-02-04T04:21:44.323Z,0.00
2019-02-04T04:22:44.325Z,0.00
2019-02-04T04:23:44.281Z,0.00
2019-02-04T04:24:44.286Z,0.00
2019-02-04T04:25:44.251Z,0.00
2019-02-04T04:26:44.302Z,0.00
2019-02-04T04:27:44.228Z,0.00
2019-02-04T04:28:44.232Z,0.00
2019-02-04T04:29:44.228Z,0.00
2019-02-04T04:30:44.198Z,0.00
2019-02-04T04:31:44.193Z,0.00
2019-02-04T04:32:44.182Z,0.00
2019-02-04T04:33:44.178Z,0.00
2019-02-04T04:34:44.131Z,0.00
2019-02-04T04:35:44.131Z,0.00
2019-02-04T04:36:44.114Z,0.00
2019-02-04T04:37:44.118Z,0.00
2019-02-04T04:38:44.088Z,0.00
2019-02-04T04:39:44.100Z,0.00
2019-02-04T04:40:44.080Z,0.00
2019-02-04T04:41:44.086Z,0.00
2019-02-04T04:42:44.078Z,0.00
2019-02-04T04:43:44.024Z,0.00
2019-02-04T04:44:44.036Z,0.00
2019-02-04T04:45:44.005Z,0.00
2019-02-04T04:46:43.989Z,0.00
2019-02-04T04:47:43.995Z,0.00
2019-02-04T04:48:43.959Z,0.00
2019-02-04T04:49:43.959Z,0.00
2019-02-04T04:50:43.924Z,0.00
2019-02-04T04:51:43.944Z,0.00
2019-02-04T04:52:43.902Z,0.00
2019-02-04T04:53:43.935Z,0.00
2019-02-04T04:54:43.925Z,0.00
2019-02-04T04:55:43.868Z,0.00
2019-02-04T04:56:43.869Z,0.00
2019-02-04T04:57:43.837Z,0.00
2019-02-04T04:58:43.833Z,0.00
2019-02-04T04:59:43.825Z,0.00
2019-02-04T05:00:43.820Z,0.00
2019-02-04T05:01:43.794Z,0.00
2019-02-04T05:02:43.767Z,0.00
2019-02-04T05:03:43.748Z,0.00
2019-02-04T05:04:52.458Z,0.00
2019-02-04T05:06:57.339Z,0.00
2019-02-04T05:07:48.225Z,0.00
2019-02-04T05:08:48.177Z,0.00
2019-02-04T05:09:48.176Z,0.00
2019-02-04T05:10:48.189Z,0.00
2019-02-04T05:11:48.134Z,0.00
2019-02-04T05:12:48.119Z,0.00
2019-02-04T05:13:48.108Z,0.00
2019-02-04T05:14:48.085Z,0.00
2019-02-04T05:15:48.095Z,0.00
2019-02-04T05:16:48.086Z,0.00
2019-02-04T05:17:48.082Z,0.00
2019-02-04T05:18:48.064Z,0.00
2019-02-04T05:19:48.028Z,0.00
2019-02-04T05:20:48.011Z,0.00
2019-02-04T05:21:48.008Z,0.00
2019-02-04T05:22:47.980Z,0.00
2019-02-04T05:23:48.006Z,0.00
2019-02-04T05:24:47.960Z,0.00
2019-02-04T05:25:47.959Z,0.00
2019-02-04T05:26:47.933Z,0.00
2019-02-04T05:27:47.915Z,0.00
2019-02-04T05:28:47.924Z,0.00
2019-02-04T05:29:47.947Z,0.00
2019-02-04T05:30:47.877Z,0.00
2019-02-04T05:31:47.863Z,0.00
2019-02-04T05:32:47.846Z,0.00
2019-02-04T05:33:47.831Z,0.00
2019-02-04T05:34:47.859Z,0.00
2019-02-04T05:35:47.813Z,0.00
2019-02-04T05:36:47.814Z,0.00
2019-02-04T05:37:47.810Z,0.00
2019-02-04T05:38:47.779Z,0.00
2019-02-04T05:39:47.766Z,0.00
2019-02-04T05:40:47.743Z,0.00
2019-02-04T05:41:47.749Z,0.00
2019-02-04T05:42:47.734Z,0.00
2019-02-04T05:43:47.761Z,0.00
2019-02-04T05:44:47.714Z,0.00
2019-02-04T05:45:47.715Z,0.00
2019-02-04T05:46:47.667Z,0.00
2019-02-04T05:47:47.684Z,0.00
2019-02-04T05:48:49.398Z,0.00
2019-02-04T05:49:47.620Z,0.00
2019-02-04T05:50:47.614Z,0.00
2019-02-04T05:51:47.604Z,0.00
2019-02-04T05:52:47.702Z,0.00
2019-02-04T05:53:47.590Z,0.00
2019-02-04T05:54:47.549Z,0.00
2019-02-04T05:55:47.534Z,0.00
2019-02-04T05:56:47.544Z,0.00
2019-02-04T05:57:47.514Z,0.00
2019-02-04T05:58:47.529Z,0.00
2019-02-04T05:59:47.516Z,0.00
2019-02-04T06:00:47.477Z,0.00
2019-02-04T06:01:47.525Z,0.00
2019-02-04T06:02:47.442Z,0.00
2019-02-04T06:03:47.449Z,0.00
2019-02-04T06:04:47.431Z,0.00
2019-02-04T06:05:47.406Z,0.00
2019-02-04T06:06:47.405Z,0.00
2019-02-04T06:07:47.401Z,0.00
2019-02-04T06:08:47.366Z,0.00
2019-02-04T06:09:47.370Z,0.00
2019-02-04T06:10:47.319Z,0.00
2019-02-04T06:11:47.370Z,0.00
2019-02-04T06:12:47.294Z,0.00
2019-02-04T06:13:47.294Z,0.00
2019-02-04T06:14:47.283Z,0.00
2019-02-04T06:15:47.296Z,0.00
2019-02-04T06:16:47.269Z,0.00
2019-02-04T06:17:47.232Z,0.00
2019-02-04T06:18:47.232Z,0.00
2019-02-04T06:19:47.203Z,0.00
2019-02-04T06:20:47.185Z,0.00
2019-02-04T06:21:47.198Z,0.00
2019-02-04T06:22:47.170Z,0.00
2019-02-04T06:23:47.144Z,0.00
2019-02-04T06:24:47.214Z,4.00
2019-02-04T06:25:47.135Z,0.00
2019-02-04T06:26:47.148Z,0.00
2019-02-04T06:27:47.088Z,4.00
2019-02-04T06:28:47.102Z,0.00
2019-02-04T06:29:47.061Z,4.00
2019-02-04T06:30:47.052Z,0.00
2019-02-04T06:31:47.055Z,4.00
2019-02-04T06:32:47.071Z,4.00
2019-02-04T06:33:47.020Z,4.00
2019-02-04T06:34:47.017Z,4.00
2019-02-04T06:35:46.985Z,4.00
2019-02-04T06:36:46.994Z,8.00
2019-02-04T06:37:47.158Z,8.00
2019-02-04T06:38:46.936Z,8.00
2019-02-04T06:39:46.912Z,8.00
2019-02-04T06:40:46.910Z,8.00
2019-02-04T06:41:46.917Z,16.00
2019-02-04T06:42:46.875Z,12.00
2019-02-04T06:43:46.888Z,16.00
2019-02-04T06:44:46.845Z,16.00
2019-02-04T06:45:46.843Z,20.00
2019-02-04T06:46:46.827Z,20.00
2019-02-04T06:47:46.839Z,24.00
2019-02-04T06:48:46.834Z,28.00
2019-02-04T06:49:46.782Z,32.00
2019-02-04T06:50:46.798Z,32.00
2019-02-04T06:51:46.794Z,36.00
2019-02-04T06:52:46.771Z,36.00
2019-02-04T06:53:46.772Z,44.00
2019-02-04T06:54:46.719Z,44.00
2019-02-04T06:55:46.727Z,52.00
2019-02-04T06:56:46.716Z,52.00
2019-02-04T06:57:46.670Z,60.00
2019-02-04T06:58:46.654Z,64.00
2019-02-04T06:59:46.641Z,72.00
2019-02-04T07:00:46.623Z,72.00
2019-02-04T07:01:46.684Z,80.00
2019-02-04T07:02:46.623Z,84.00
2019-02-04T07:03:46.710Z,92.00
2019-02-04T07:04:46.587Z,96.00
2019-02-04T07:05:46.707Z,104.00
2019-02-04T07:06:46.534Z,108.00
2019-02-04T07:07:46.704Z,120.00
2019-02-04T07:08:46.568Z,124.00
2019-02-04T07:09:46.519Z,132.00
2019-02-04T07:10:46.510Z,136.00
2019-02-04T07:11:46.552Z,144.00
2019-02-04T07:12:46.486Z,152.00
2019-02-04T07:13:46.474Z,160.00
2019-02-04T07:14:46.514Z,168.00
2019-02-04T07:15:46.451Z,176.00
2019-02-04T07:16:46.397Z,184.00
2019-02-04T07:17:46.529Z,192.00
2019-02-04T07:18:46.385Z,204.00
2019-02-04T07:19:46.463Z,208.00
2019-02-04T07:20:46.446Z,208.00
2019-02-04T07:21:46.325Z,220.00
2019-02-04T07:22:46.364Z,224.00
2019-02-04T07:23:46.307Z,236.00
2019-02-04T07:24:46.334Z,240.00
2019-02-04T07:25:46.278Z,252.00
2019-02-04T07:26:46.291Z,260.00
2019-02-04T07:27:46.249Z,268.00
2019-02-04T07:28:46.287Z,272.00
2019-02-04T07:29:46.225Z,292.00
2019-02-04T07:30:46.231Z,300.00
2019-02-04T07:31:46.219Z,312.00
2019-02-04T07:32:46.223Z,316.00
2019-02-04T07:33:46.163Z,324.00
2019-02-04T07:34:46.168Z,332.00
2019-02-04T07:35:46.159Z,340.00
2019-02-04T07:36:46.145Z,344.00
2019-02-04T07:37:46.151Z,348.00
2019-02-04T07:38:46.096Z,356.00
2019-02-04T07:39:46.135Z,360.00
2019-02-04T07:40:46.102Z,364.00
2019-02-04T07:41:46.075Z,372.00
2019-02-04T07:42:46.063Z,376.00
2019-02-04T07:43:46.060Z,384.00
2019-02-04T07:44:46.024Z,384.00
2019-02-04T07:45:46.015Z,392.00
2019-02-04T07:46:46.016Z,400.00
2019-02-04T07:47:45.990Z,404.00
2019-02-04T07:48:45.997Z,404.00
2019-02-04T07:49:45.951Z,412.00
2019-02-04T07:50:45.934Z,416.00
2019-02-04T07:51:45.925Z,424.00
2019-02-04T07:52:45.933Z,424.00
2019-02-04T07:53:55.623Z,432.00
2019-02-04T07:55:50.378Z,436.00
2019-02-04T07:56:59.848Z,440.00
2019-02-04T07:59:06.069Z,452.00
2019-02-04T08:00:06.071Z,456.00
2019-02-04T08:01:06.070Z,460.00
2019-02-04T08:02:06.026Z,464.00
2019-02-04T08:03:06.037Z,468.00
2019-02-04T08:04:05.993Z,472.00
2019-02-04T08:05:06.025Z,476.00
2019-02-04T08:06:05.990Z,476.00
2019-02-04T08:07:05.964Z,480.00
2019-02-04T08:08:05.932Z,480.00
2019-02-04T08:09:05.937Z,480.00
2019-02-04T08:10:05.921Z,484.00
2019-02-04T08:11:05.892Z,488.00
2019-02-04T08:12:05.877Z,484.00
2019-02-04T08:13:05.866Z,488.00
2019-02-04T08:14:05.856Z,488.00
2019-02-04T08:15:05.863Z,492.00
2019-02-04T08:16:05.837Z,496.00
2019-02-04T08:17:05.806Z,500.00
2019-02-04T08:18:05.835Z,500.00
2019-02-04T08:19:05.809Z,504.00
2019-02-04T08:20:05.804Z,504.00
2019-02-04T08:21:05.759Z,504.00
2019-02-04T08:22:05.753Z,504.00
2019-02-04T08:23:05.756Z,508.00
2019-02-04T08:24:05.765Z,516.00
2019-02-04T08:25:05.750Z,512.00
2019-02-04T08:26:05.761Z,516.00
2019-02-04T08:27:05.679Z,516.00
2019-02-04T08:28:05.678Z,516.00
2019-02-04T08:29:05.659Z,516.00
2019-02-04T08:30:05.665Z,520.00
2019-02-04T08:31:05.665Z,520.00
2019-02-04T08:32:05.618Z,516.00
2019-02-04T08:33:05.645Z,516.00
2019-02-04T08:34:05.624Z,516.00
2019-02-04T08:35:05.579Z,516.00
2019-02-04T08:36:05.565Z,520.00
2019-02-04T08:37:05.607Z,520.00
2019-02-04T08:38:05.538Z,516.00
2019-02-04T08:39:05.566Z,524.00
2019-02-04T08:40:05.535Z,520.00
2019-02-04T08:41:05.690Z,528.00
2019-02-04T08:42:05.516Z,520.00
2019-02-04T08:43:05.522Z,528.00
2019-02-04T08:44:05.509Z,532.00
2019-02-04T08:45:05.492Z,524.00
2019-02-04T08:46:05.433Z,528.00
2019-02-04T08:47:05.466Z,528.00
2019-02-04T08:48:05.474Z,524.00
2019-02-04T08:49:05.517Z,516.00
2019-02-04T08:50:05.398Z,524.00
2019-02-04T08:51:05.379Z,512.00
2019-02-04T08:52:05.494Z,500.00
2019-02-04T08:53:05.448Z,516.00
2019-02-04T08:54:05.426Z,516.00
2019-02-04T08:55:05.362Z,508.00
2019-02-04T08:56:14.079Z,512.00
2019-02-04T08:58:09.840Z,520.00
2019-02-04T08:59:09.827Z,528.00
2019-02-04T09:00:09.874Z,528.00
2019-02-04T09:01:09.747Z,520.00
2019-02-04T09:02:09.743Z,532.00
2019-02-04T09:03:09.742Z,524.00
2019-02-04T09:04:09.702Z,520.00
2019-02-04T09:05:09.707Z,508.00
2019-02-04T09:06:09.660Z,516.00
2019-02-04T09:07:09.671Z,500.00
2019-02-04T09:08:09.647Z,504.00
2019-02-04T09:09:09.661Z,512.00
2019-02-04T09:10:09.665Z,492.00
2019-02-04T09:11:09.631Z,508.00
2019-02-04T09:12:09.617Z,512.00
2019-02-04T09:13:09.582Z,512.00
2019-02-04T09:14:09.610Z,520.00
2019-02-04T09:15:09.594Z,512.00
2019-02-04T09:16:09.575Z,512.00
2019-02-04T09:17:09.532Z,520.00
2019-02-04T09:18:09.534Z,532.00
2019-02-04T09:19:09.521Z,524.00
2019-02-04T09:20:10.481Z,524.00
2019-02-04T09:21:09.491Z,520.00
2019-02-04T09:22:09.512Z,508.00
2019-02-04T09:23:09.498Z,512.00
2019-02-04T09:24:09.491Z,516.00
2019-02-04T09:25:09.443Z,524.00
2019-02-04T09:26:09.432Z,516.00
2019-02-04T09:27:09.444Z,520.00
2019-02-04T09:28:09.405Z,516.00
2019-02-04T09:29:09.418Z,520.00
2019-02-04T09:30:09.426Z,520.00
2019-02-04T09:31:09.395Z,520.00
2019-02-04T09:32:09.383Z,508.00
2019-02-04T09:33:09.345Z,520.00
2019-02-04T09:34:09.382Z,520.00
2019-02-04T09:35:09.356Z,520.00
2019-02-04T09:36:09.310Z,520.00
2019-02-04T09:37:09.347Z,520.00
2019-02-04T09:38:09.314Z,520.00
2019-02-04T09:39:09.289Z,532.00
2019-02-04T09:40:09.290Z,528.00
2019-02-04T09:41:09.251Z,528.00
2019-02-04T09:42:09.276Z,528.00
2019-02-04T09:43:09.243Z,528.00
2019-02-04T09:44:09.259Z,532.00
2019-02-04T09:45:09.203Z,532.00
2019-02-04T09:46:09.281Z,528.00
2019-02-04T09:47:09.186Z,540.00
2019-02-04T09:48:09.190Z,544.00
2019-02-04T09:49:09.191Z,540.00
2019-02-04T09:50:09.161Z,532.00
2019-02-04T09:51:09.151Z,532.00
2019-02-04T09:52:09.123Z,532.00
2019-02-04T09:53:09.172Z,540.00
2019-02-04T09:54:09.134Z,556.00
2019-02-04T09:55:09.136Z,536.00
2019-02-04T09:56:09.085Z,548.00
2019-02-04T09:57:09.206Z,548.00
2019-02-04T09:58:09.086Z,548.00
2019-02-04T09:59:09.055Z,540.00
2019-02-04T10:00:09.069Z,528.00
2019-02-04T10:01:09.034Z,544.00
2019-02-04T10:02:09.013Z,540.00
2019-02-04T10:03:09.014Z,556.00
2019-02-04T10:04:09.019Z,532.00
2019-02-04T10:05:09.016Z,572.00
2019-02-04T10:06:08.974Z,572.00
2019-02-04T10:07:08.976Z,572.00
2019-02-04T10:08:08.956Z,580.00
2019-02-04T10:09:08.993Z,572.00
2019-02-04T10:10:08.919Z,572.00
2019-02-04T10:11:08.931Z,576.00
2019-02-04T10:12:08.957Z,564.00
2019-02-04T10:13:08.930Z,556.00
2019-02-04T10:14:08.886Z,560.00
2019-02-04T10:15:08.878Z,560.00
2019-02-04T10:16:11.533Z,560.00
2019-02-04T10:17:08.896Z,572.00
2019-02-04T10:18:08.844Z,572.00
2019-02-04T10:19:08.863Z,576.00
2019-02-04T10:20:08.886Z,572.00
2019-02-04T10:21:08.806Z,572.00
2019-02-04T10:22:08.809Z,560.00
2019-02-04T10:23:08.865Z,560.00
2019-02-04T10:24:08.840Z,576.00
2019-02-04T10:25:08.780Z,580.00
2019-02-04T10:26:08.753Z,560.00
2019-02-04T10:27:08.775Z,576.00
2019-02-04T10:28:08.747Z,568.00
2019-02-04T10:29:08.721Z,556.00
2019-02-04T10:30:08.781Z,588.00
2019-02-04T10:31:08.738Z,568.00
2019-02-04T10:32:08.734Z,576.00
2019-02-04T10:33:08.815Z,560.00
2019-02-04T10:34:08.707Z,564.00
2019-02-04T10:35:16.607Z,568.00
2019-02-04T10:36:08.670Z,560.00
2019-02-04T10:37:08.698Z,560.00
2019-02-04T10:38:08.662Z,556.00
2019-02-04T10:39:08.651Z,556.00
2019-02-04T10:40:08.596Z,544.00
2019-02-04T10:41:08.602Z,548.00
2019-02-04T10:42:08.650Z,540.00
2019-02-04T10:43:08.639Z,532.00
2019-02-04T10:44:08.591Z,532.00
2019-02-04T10:45:08.538Z,528.00
2019-02-04T10:46:08.608Z,524.00
2019-02-04T10:47:08.521Z,528.00
2019-02-04T10:48:08.669Z,532.00
2019-02-04T10:49:08.535Z,532.00
2019-02-04T10:50:08.549Z,532.00
2019-02-04T10:51:08.548Z,532.00
2019-02-04T10:52:08.574Z,536.00
2019-02-04T10:53:08.504Z,544.00
2019-02-04T10:54:08.495Z,536.00
2019-02-04T10:55:08.532Z,540.00
2019-02-04T10:56:08.464Z,536.00
2019-02-04T10:57:08.422Z,520.00
2019-02-04T10:58:08.459Z,580.00
2019-02-04T10:59:08.447Z,540.00
2019-02-04T11:00:08.393Z,520.00
2019-02-04T11:01:08.478Z,524.00
2019-02-04T11:02:11.282Z,536.00
2019-02-04T11:03:08.445Z,576.00
2019-02-04T11:04:08.414Z,504.00
2019-02-04T11:05:08.345Z,528.00
2019-02-04T11:06:08.349Z,536.00
2019-02-04T11:07:08.340Z,532.00
2019-02-04T11:08:08.349Z,528.00
2019-02-04T11:09:08.327Z,516.00
2019-02-04T11:10:08.289Z,492.00
2019-02-04T11:11:08.332Z,540.00
2019-02-04T11:12:08.280Z,516.00
2019-02-04T11:13:08.314Z,520.00
2019-02-04T11:14:08.323Z,536.00
2019-02-04T11:15:08.247Z,528.00
2019-02-04T11:16:08.258Z,576.00
2019-02-04T11:17:08.278Z,508.00
2019-02-04T11:18:08.349Z,540.00
2019-02-04T11:19:08.203Z,568.00
2019-02-04T11:20:08.239Z,568.00
2019-02-04T11:21:08.357Z,576.00
2019-02-04T11:22:08.179Z,576.00
2019-02-04T11:23:08.166Z,576.00
2019-02-04T11:24:08.250Z,584.00
2019-02-04T11:25:08.137Z,600.00
2019-02-04T11:26:08.179Z,588.00
2019-02-04T11:27:08.146Z,604.00
2019-02-04T11:28:08.139Z,596.00
2019-02-04T11:29:08.135Z,616.00
2019-02-04T11:30:08.094Z,600.00
2019-02-04T11:31:08.112Z,564.00
2019-02-04T11:32:08.075Z,580.00
2019-02-04T11:33:08.118Z,584.00
2019-02-04T11:34:08.044Z,580.00
2019-02-04T11:35:08.114Z,588.00
2019-02-04T11:36:08.043Z,584.00
2019-02-04T11:37:08.020Z,592.00
2019-02-04T11:38:08.035Z,584.00
2019-02-04T11:39:08.057Z,720.00
2019-02-04T11:40:08.028Z,604.00
2019-02-04T11:41:07.997Z,592.00
2019-02-04T11:42:07.984Z,592.00
2019-02-04T11:43:07.991Z,604.00
2019-02-04T11:44:08.008Z,572.00
2019-02-04T11:45:07.987Z,588.00
2019-02-04T11:46:07.989Z,596.00
2019-02-04T11:47:08.075Z,608.00
2019-02-04T11:48:07.956Z,592.00
2019-02-04T11:49:07.903Z,584.00
2019-02-04T11:50:07.888Z,592.00
2019-02-04T11:51:09.708Z,600.00
2019-02-04T11:52:07.896Z,604.00
2019-02-04T11:53:07.921Z,612.00
2019-02-04T11:54:07.857Z,608.00
2019-02-04T11:55:07.841Z,600.00
2019-02-04T11:56:07.838Z,592.00
2019-02-04T11:57:07.829Z,600.00
2019-02-04T11:58:08.186Z,592.00
2019-02-04T11:59:07.808Z,596.00
2019-02-04T12:00:07.812Z,632.00
2019-02-04T12:01:07.786Z,612.00
2019-02-04T12:02:07.817Z,624.00
2019-02-04T12:03:07.800Z,632.00
2019-02-04T12:04:07.853Z,612.00
2019-02-04T12:05:07.793Z,620.00
2019-02-04T12:06:07.768Z,632.00
2019-02-04T12:07:07.754Z,616.00
2019-02-04T12:08:07.773Z,628.00
2019-02-04T12:09:07.719Z,636.00
2019-02-04T12:10:07.746Z,632.00
2019-02-04T12:11:07.724Z,692.00
2019-02-04T12:12:07.723Z,628.00
2019-02-04T12:13:07.686Z,644.00
2019-02-04T12:14:07.668Z,652.00
2019-02-04T12:15:07.650Z,644.00
2019-02-04T12:16:07.677Z,644.00
2019-02-04T12:17:07.663Z,656.00
2019-02-04T12:18:07.667Z,652.00
2019-02-04T12:19:07.611Z,660.00
2019-02-04T12:20:07.613Z,656.00
2019-02-04T12:21:07.595Z,656.00
2019-02-04T12:22:07.612Z,680.00
2019-02-04T12:23:07.589Z,672.00
2019-02-04T12:24:07.604Z,652.00
2019-02-04T12:25:07.561Z,676.00
2019-02-04T12:26:07.549Z,660.00
2019-02-04T12:27:07.577Z,652.00
2019-02-04T12:28:07.532Z,648.00
2019-02-04T12:29:07.531Z,676.00
2019-02-04T12:30:07.511Z,652.00
2019-02-04T12:31:07.504Z,664.00
2019-02-04T12:32:07.504Z,652.00
2019-02-04T12:33:07.528Z,660.00
2019-02-04T12:34:07.504Z,644.00
2019-02-04T12:35:07.464Z,656.00
2019-02-04T12:36:07.474Z,644.00
2019-02-04T12:37:07.571Z,652.00
2019-02-04T12:38:07.461Z,624.00
2019-02-04T12:39:07.463Z,636.00
2019-02-04T12:40:07.413Z,640.00
2019-02-04T12:41:07.442Z,664.00
2019-02-04T12:42:07.425Z,624.00
2019-02-04T12:43:07.423Z,652.00
2019-02-04T12:44:07.375Z,676.00
2019-02-04T12:45:07.376Z,664.00
2019-02-04T12:46:07.383Z,648.00
2019-02-04T12:47:07.351Z,660.00
2019-02-04T12:48:07.347Z,648.00
2019-02-04T12:49:07.345Z,636.00
2019-02-04T12:50:07.355Z,612.00
2019-02-04T12:51:07.350Z,636.00
2019-02-04T12:52:07.304Z,640.00
2019-02-04T12:53:10.194Z,632.00
2019-02-04T12:54:07.312Z,644.00
2019-02-04T12:55:07.298Z,632.00
2019-02-04T12:56:07.302Z,632.00
2019-02-04T12:57:07.300Z,628.00
2019-02-04T12:58:07.268Z,636.00
2019-02-04T12:59:07.239Z,640.00
2019-02-04T13:00:07.274Z,636.00
2019-02-04T13:01:07.227Z,604.00
2019-02-04T13:02:07.264Z,632.00
2019-02-04T13:03:07.226Z,624.00
2019-02-04T13:04:07.253Z,616.00
2019-02-04T13:05:07.186Z,624.00
2019-02-04T13:06:07.225Z,596.00
2019-02-04T13:07:07.262Z,608.00
2019-02-04T13:08:07.180Z,600.00
2019-02-04T13:09:07.177Z,596.00
2019-02-04T13:10:07.178Z,640.00
2019-02-04T13:11:07.129Z,600.00
2019-02-04T13:12:09.109Z,632.00
2019-02-04T13:13:07.129Z,608.00